createdAt,value
2023-02-05T00:02:10.662Z,2.22
2023-02-05T00:04:38.307Z,3.30
2023-02-05T00:07:06.446Z,2.60
2023-02-05T00:09:34.623Z,1.95
2023-02-05T00:12:01.722Z,6.72
2023-02-05T00:14:29.191Z,4.38
2023-02-05T00:16:56.495Z,2.08
2023-02-05T00:19:23.932Z,2.50
2023-02-05T00:21:51.037Z,2.08
2023-02-05T00:24:19.334Z,2.38
2023-02-05T00:26:46.704Z,5.10
2023-02-05T00:29:16.817Z,3.70
2023-02-05T00:31:44.357Z,2.10
2023-02-05T00:34:11.699Z,2.00
2023-02-05T00:36:38.858Z,2.47
2023-02-05T00:39:06.370Z,5.75
2023-02-05T00:41:33.507Z,4.55
2023-02-05T00:44:01.163Z,3.30
2023-02-05T00:46:28.648Z,3.08
2023-02-05T00:48:55.795Z,4.38
2023-02-05T00:51:22.922Z,3.13
2023-02-05T00:53:50.298Z,5.07
2023-02-05T00:56:17.535Z,2.38
2023-02-05T00:58:47.991Z,3.83
2023-02-05T01:01:16.021Z,2.83
2023-02-05T01:03:44.055Z,3.13
2023-02-05T01:06:11.712Z,2.13
2023-02-05T01:08:38.918Z,6.03
2023-02-05T01:11:11.649Z,3.22
2023-02-05T01:13:39.395Z,7.53
2023-02-05T01:16:08.224Z,2.10
2023-02-05T01:18:35.427Z,2.33
2023-02-05T01:21:03.088Z,3.63
2023-02-05T01:23:30.350Z,5.25
2023-02-05T01:25:57.746Z,9.07
2023-02-05T01:28:25.112Z,1.95
2023-02-05T01:30:52.600Z,2.75
2023-02-05T01:33:20.200Z,3.03
2023-02-05T01:35:47.517Z,5.20
2023-02-05T01:38:15.660Z,8.90
2023-02-05T01:40:43.135Z,18.73
2023-02-05T01:43:15.202Z,16.20
2023-02-05T01:46:07.036Z,11.48
2023-02-05T01:48:43.483Z,13.05
2023-02-05T01:51:14.030Z,9.73
2023-02-05T01:53:42.094Z,26.75
2023-02-05T01:56:22.803Z,22.23
2023-02-05T01:59:04.271Z,7.72
2023-02-05T02:01:32.595Z,6.88
2023-02-05T02:04:04.927Z,4.50
2023-02-05T02:06:34.422Z,4.95
2023-02-05T02:09:03.162Z,2.58
2023-02-05T02:11:35.725Z,2.28
2023-02-05T02:14:08.921Z,3.25
2023-02-05T02:16:38.499Z,1.58
2023-02-05T02:19:12.980Z,4.30
2023-02-05T02:22:13.293Z,4.93
2023-02-05T02:24:48.427Z,2.35
2023-02-05T02:27:33.899Z,6.07
2023-02-05T02:32:36.126Z,1.73
2023-02-05T02:35:36.298Z,2.13
2023-02-05T02:38:22.412Z,3.13
2023-02-05T02:41:01.624Z,6.75
2023-02-05T02:43:41.151Z,4.15
2023-02-05T02:46:32.087Z,9.18
2023-02-05T02:49:05.610Z,0.95
2023-02-05T02:51:36.996Z,4.30
2023-02-05T02:54:08.918Z,5.47
2023-02-05T02:56:39.315Z,5.40
2023-02-05T02:59:11.164Z,1.65
2023-02-05T03:01:46.938Z,1.58
2023-02-05T03:04:23.068Z,2.28
2023-02-05T03:06:53.990Z,5.03
2023-02-05T03:09:42.298Z,2.00
2023-02-05T03:12:09.658Z,1.50
2023-02-05T03:14:37.288Z,2.35
2023-02-05T03:17:05.181Z,3.45
2023-02-05T03:19:32.904Z,4.85
2023-02-05T03:22:04.523Z,1.10
2023-02-05T03:24:33.023Z,2.42
2023-02-05T03:27:00.449Z,3.60
2023-02-05T03:29:34.423Z,2.53
2023-02-05T03:32:35.617Z,3.17
2023-02-05T03:35:11.718Z,2.05
2023-02-05T03:37:49.368Z,2.10
2023-02-05T03:40:34.466Z,1.85
2023-02-05T03:43:25.288Z,2.65
2023-02-05T03:46:22.217Z,2.15
2023-02-05T03:49:14.270Z,2.83
2023-02-05T03:51:58.472Z,4.65
2023-02-05T03:54:54.527Z,1.38
2023-02-05T03:57:44.101Z,3.75
2023-02-05T04:00:12.670Z,4.50
2023-02-05T04:02:40.047Z,2.83
2023-02-05T04:05:07.448Z,2.30
2023-02-05T04:07:34.793Z,4.35
2023-02-05T04:10:02.293Z,3.38
2023-02-05T04:12:29.497Z,2.85
2023-02-05T04:14:56.849Z,1.90
2023-02-05T04:17:24.066Z,9.10
2023-02-05T04:19:51.409Z,2.30
2023-02-05T04:22:18.711Z,5.13
2023-02-05T04:24:45.895Z,1.73
2023-02-05T04:27:13.352Z,1.30
2023-02-05T04:29:40.717Z,3.03
2023-02-05T04:32:07.985Z,2.03
2023-02-05T04:34:35.131Z,3.03
2023-02-05T04:37:03.298Z,3.65
2023-02-05T04:39:30.632Z,2.42
2023-02-05T04:41:57.911Z,2.78
2023-02-05T04:44:25.274Z,2.63
2023-02-05T04:46:52.401Z,4.30
2023-02-05T04:49:20.128Z,3.53
2023-02-05T04:51:47.425Z,4.60
2023-02-05T04:54:14.833Z,1.15
2023-02-05T04:56:42.148Z,2.42
2023-02-05T04:59:09.580Z,4.80
2023-02-05T05:01:36.845Z,3.10
2023-02-05T05:04:04.141Z,3.33
2023-02-05T05:06:31.215Z,3.53
2023-02-05T05:08:58.356Z,1.95
2023-02-05T05:11:25.985Z,2.10
2023-02-05T05:13:53.111Z,1.77
2023-02-05T05:16:20.420Z,4.97
2023-02-05T05:18:47.746Z,4.18
2023-02-05T05:21:14.989Z,2.58
2023-02-05T05:23:45.279Z,2.42
2023-02-05T05:26:13.689Z,1.33
2023-02-05T05:28:41.347Z,1.27
2023-02-05T05:31:11.226Z,2.10
2023-02-05T05:33:38.661Z,2.92
2023-02-05T05:36:07.199Z,1.23
2023-02-05T05:38:34.399Z,3.42
2023-02-05T05:41:20.647Z,3.33
2023-02-05T05:43:48.730Z,3.30
2023-02-05T05:46:23.018Z,1.95
2023-02-05T05:48:55.285Z,4.22
2023-02-05T05:51:23.175Z,3.40
2023-02-05T05:53:50.917Z,2.78
2023-02-05T05:56:19.037Z,3.92
2023-02-05T05:58:47.259Z,2.58
2023-02-05T06:01:16.601Z,2.13
2023-02-05T06:03:43.756Z,3.50
2023-02-05T06:06:12.770Z,2.67
2023-02-05T06:08:40.420Z,4.63
2023-02-05T06:11:07.721Z,5.13
2023-02-05T06:13:35.176Z,9.70
2023-02-05T06:16:02.628Z,4.57
2023-02-05T06:18:30.703Z,3.70
2023-02-05T06:20:58.159Z,2.10
2023-02-05T06:23:25.667Z,2.65
2023-02-05T06:25:52.794Z,2.83
2023-02-05T06:28:20.516Z,3.15
2023-02-05T06:30:47.716Z,1.55
2023-02-05T06:33:14.831Z,10.27
2023-02-05T06:35:42.476Z,4.68
2023-02-05T06:38:10.007Z,1.85
2023-02-05T06:40:37.276Z,4.15
2023-02-05T06:43:04.762Z,4.38
2023-02-05T06:45:32.313Z,5.88
2023-02-05T06:47:59.917Z,2.50
2023-02-05T06:50:27.324Z,2.65
2023-02-05T06:52:54.698Z,10.00
2023-02-05T06:55:21.996Z,3.42
2023-02-05T06:57:49.577Z,1.92
2023-02-05T07:00:32.413Z,3.15
2023-02-05T07:03:03.823Z,4.22
2023-02-05T07:05:31.174Z,2.63
2023-02-05T07:07:58.628Z,4.70
2023-02-05T07:10:26.371Z,4.18
2023-02-05T07:12:53.916Z,6.45
2023-02-05T07:15:22.925Z,8.27
2023-02-05T07:17:50.938Z,1.85
2023-02-05T07:20:23.235Z,19.83
2023-02-05T07:22:50.642Z,1.88
2023-02-05T07:25:18.313Z,3.88
2023-02-05T07:27:49.000Z,2.33
2023-02-05T07:30:16.398Z,2.80
2023-02-05T07:32:43.611Z,3.72
2023-02-05T07:35:10.990Z,5.32
2023-02-05T07:37:40.153Z,8.18
2023-02-05T07:40:08.302Z,2.05
2023-02-05T07:42:35.919Z,4.40
2023-02-05T07:45:03.248Z,4.72
2023-02-05T07:47:33.496Z,4.68
2023-02-05T07:50:00.910Z,6.55
2023-02-05T07:52:30.048Z,3.05
2023-02-05T07:54:57.478Z,3.42
2023-02-05T07:57:26.930Z,6.78
2023-02-05T07:59:54.333Z,5.25
2023-02-05T08:02:24.220Z,1.20
2023-02-05T08:04:52.402Z,7.03
2023-02-05T08:07:19.637Z,2.97
2023-02-05T08:09:47.013Z,2.90
2023-02-05T08:12:14.394Z,4.70
2023-02-05T08:14:42.080Z,2.53
2023-02-05T08:17:09.469Z,2.75
2023-02-05T08:19:36.957Z,6.70
2023-02-05T08:22:04.456Z,5.30
2023-02-05T08:24:32.654Z,3.40
2023-02-05T08:26:59.869Z,4.70
2023-02-05T08:29:28.229Z,4.13
2023-02-05T08:31:55.555Z,5.85
2023-02-05T08:34:23.064Z,3.00
2023-02-05T08:36:51.281Z,8.30
2023-02-05T08:39:18.487Z,2.95
2023-02-05T08:41:46.211Z,3.92
2023-02-05T08:44:13.358Z,8.25
2023-02-05T08:46:49.844Z,3.03
2023-02-05T08:49:21.185Z,2.85
2023-02-05T08:51:48.886Z,3.65
2023-02-05T08:54:19.031Z,7.55
2023-02-05T08:56:52.621Z,4.03
2023-02-05T08:59:20.710Z,14.40
2023-02-05T09:01:48.393Z,16.60
2023-02-05T09:04:17.919Z,6.80
2023-02-05T09:06:45.870Z,4.65
2023-02-05T09:09:14.178Z,6.72
2023-02-05T09:11:42.106Z,3.70
2023-02-05T09:14:10.965Z,3.80
2023-02-05T09:16:38.404Z,3.53
2023-02-05T09:19:07.657Z,3.95
2023-02-05T09:21:35.547Z,5.00
2023-02-05T09:24:05.790Z,7.78
2023-02-05T09:26:33.162Z,7.97
2023-02-05T09:29:00.763Z,5.25
2023-02-05T09:31:28.153Z,4.07
2023-02-05T09:33:56.197Z,2.67
2023-02-05T09:36:24.472Z,3.72
2023-02-05T09:39:01.976Z,3.83
2023-02-05T09:41:45.881Z,3.25
2023-02-05T09:48:01.230Z,5.32
2023-02-05T09:50:30.716Z,7.88
2023-02-05T09:53:06.105Z,4.60
2023-02-05T09:55:45.276Z,4.05
2023-02-05T09:58:26.026Z,7.18
2023-02-05T10:01:01.381Z,3.20
2023-02-05T10:03:45.092Z,5.38
2023-02-05T10:06:52.331Z,4.40
2023-02-05T10:09:50.596Z,3.00
2023-02-05T10:12:51.630Z,2.83
2023-02-05T10:15:46.474Z,5.07
2023-02-05T10:18:32.295Z,3.28
2023-02-05T10:21:26.735Z,1.95
2023-02-05T10:24:21.698Z,6.05
2023-02-05T10:27:02.186Z,2.47
2023-02-05T10:30:16.199Z,5.32
2023-02-05T10:32:58.434Z,5.55
2023-02-05T10:35:56.575Z,3.58
2023-02-05T10:38:26.500Z,3.80
2023-02-05T10:41:00.318Z,10.82
2023-02-05T10:43:50.886Z,2.40
2023-02-05T10:46:18.914Z,3.80
2023-02-05T10:49:06.968Z,9.15
2023-02-05T10:51:50.059Z,4.63
2023-02-05T10:54:35.524Z,3.38
2023-02-05T10:57:02.787Z,1.83
2023-02-05T10:59:33.008Z,4.60
2023-02-05T11:02:06.838Z,3.15
2023-02-05T11:04:42.638Z,3.60
2023-02-05T11:07:34.162Z,9.60
2023-02-05T11:10:26.228Z,8.15
2023-02-05T11:13:07.442Z,5.43
2023-02-05T11:15:35.118Z,3.90
2023-02-05T11:18:06.125Z,4.75
2023-02-05T11:20:39.060Z,3.67
2023-02-05T11:23:27.586Z,6.95
2023-02-05T11:26:07.172Z,7.60
2023-02-05T11:28:41.924Z,5.28
2023-02-05T11:31:38.542Z,11.13
2023-02-05T11:34:08.690Z,1.33
2023-02-05T11:36:59.952Z,3.78
2023-02-05T11:39:39.997Z,5.20
2023-02-05T11:42:25.450Z,5.45
2023-02-05T11:45:02.346Z,4.68
2023-02-05T11:47:34.464Z,5.53
2023-02-05T11:50:04.219Z,2.58
2023-02-05T11:52:36.971Z,4.13
2023-02-05T11:55:05.457Z,2.95
2023-02-05T11:57:35.523Z,3.50
2023-02-05T12:00:09.174Z,6.03
2023-02-05T12:02:38.833Z,4.10
2023-02-05T12:05:31.330Z,4.93
2023-02-05T12:08:17.910Z,2.55
2023-02-05T12:11:06.814Z,3.42
2023-02-05T12:14:02.760Z,9.05
2023-02-05T12:19:23.283Z,2.42
2023-02-05T12:22:18.904Z,8.70
2023-02-05T12:25:12.091Z,10.38
2023-02-05T12:27:57.590Z,2.97
2023-02-05T12:33:30.713Z,4.57
2023-02-05T12:36:27.457Z,2.28
2023-02-05T12:39:18.650Z,6.78
2023-02-05T12:41:51.641Z,8.57
2023-02-05T12:45:11.151Z,12.65
2023-02-05T12:48:13.748Z,5.03
2023-02-05T12:50:54.172Z,4.18
2023-02-05T12:53:24.342Z,3.55
2023-02-05T12:56:39.268Z,3.00
2023-02-05T12:59:24.428Z,6.22
2023-02-05T13:01:58.314Z,3.45
2023-02-05T13:04:59.536Z,4.43
2023-02-05T13:07:35.354Z,2.22
2023-02-05T13:10:28.773Z,3.58
2023-02-05T13:13:02.396Z,3.08
2023-02-05T13:15:38.102Z,3.38
2023-02-05T13:18:19.489Z,8.30
2023-02-05T13:21:12.189Z,7.18
2023-02-05T13:24:02.040Z,3.95
2023-02-05T13:26:54.959Z,3.20
2023-02-05T13:29:27.259Z,6.13
2023-02-05T13:32:10.700Z,2.90
2023-02-05T13:34:42.667Z,4.40
2023-02-05T13:37:27.386Z,3.88
2023-02-05T13:39:54.596Z,3.37
2023-02-05T13:42:49.809Z,2.45
2023-02-05T13:45:22.931Z,4.95
2023-02-05T13:48:15.036Z,3.35
2023-02-05T13:51:20.624Z,6.43
2023-02-05T13:54:28.477Z,10.27
2023-02-05T13:57:16.334Z,6.53
2023-02-05T13:59:51.734Z,5.68
2023-02-05T14:02:40.405Z,2.92
2023-02-05T14:05:08.607Z,11.48
2023-02-05T14:07:51.109Z,2.50
2023-02-05T14:10:28.062Z,6.07
2023-02-05T14:13:11.081Z,3.70
2023-02-05T14:15:44.790Z,2.67
2023-02-05T14:18:34.089Z,2.70
2023-02-05T14:21:01.930Z,14.10
2023-02-05T14:23:50.250Z,8.38
2023-02-05T14:26:18.618Z,10.90
2023-02-05T14:29:25.714Z,6.30
2023-02-05T14:31:53.000Z,6.57
2023-02-05T14:34:45.153Z,44.25
2023-02-05T14:37:39.363Z,36.08
2023-02-05T14:40:23.343Z,29.10
2023-02-05T14:43:10.543Z,6.28
2023-02-05T14:45:45.942Z,9.32
2023-02-05T14:51:08.203Z,19.85
2023-02-05T14:53:38.286Z,4.50
2023-02-05T14:56:06.539Z,5.03
2023-02-05T14:58:45.211Z,3.95
2023-02-05T15:01:42.358Z,2.60
2023-02-05T15:04:24.393Z,2.38
2023-02-05T15:06:52.686Z,3.55
2023-02-05T15:09:31.662Z,12.02
2023-02-05T15:12:09.663Z,3.53
2023-02-05T15:14:58.199Z,6.38
2023-02-05T15:17:32.506Z,2.95
2023-02-05T15:20:17.786Z,11.43
2023-02-05T15:22:51.694Z,12.23
2023-02-05T15:25:42.793Z,10.48
2023-02-05T15:28:28.028Z,12.48
2023-02-05T15:31:15.460Z,22.17
2023-02-05T15:34:27.107Z,6.88
2023-02-05T15:37:19.823Z,4.90
2023-02-05T15:39:55.532Z,14.85
2023-02-05T15:42:40.848Z,7.78
2023-02-05T15:45:34.932Z,6.07
2023-02-05T15:48:11.463Z,14.48
2023-02-05T15:50:45.751Z,3.17
2023-02-05T15:53:35.378Z,4.43
2023-02-05T15:56:25.426Z,8.70
2023-02-05T15:59:11.759Z,4.40
2023-02-05T16:01:50.239Z,6.00
2023-02-05T16:04:23.455Z,5.65
2023-02-05T16:06:50.581Z,2.28
2023-02-05T16:09:19.833Z,6.63
2023-02-05T16:11:48.317Z,3.55
2023-02-05T16:14:19.033Z,9.55
2023-02-05T16:17:22.795Z,3.97
2023-02-05T16:20:29.225Z,7.72
2023-02-05T16:25:47.336Z,5.43
2023-02-05T16:28:26.903Z,3.42
2023-02-05T16:30:57.161Z,3.35
2023-02-05T16:33:35.627Z,4.28
2023-02-05T16:36:06.460Z,3.60
2023-02-05T16:38:35.630Z,4.55
2023-02-05T16:41:20.998Z,2.28
2023-02-05T16:43:48.450Z,4.80
2023-02-05T16:46:15.837Z,3.65
2023-02-05T16:48:47.038Z,3.60
2023-02-05T16:51:38.456Z,5.10
2023-02-05T16:54:11.774Z,8.98
2023-02-05T16:56:56.428Z,2.40
2023-02-05T16:59:26.395Z,4.80
2023-02-05T17:01:54.132Z,3.38
2023-02-05T17:04:30.128Z,3.05
2023-02-05T17:07:00.348Z,4.45
2023-02-05T17:09:41.182Z,3.47
2023-02-05T17:12:24.614Z,8.52
2023-02-05T17:15:03.365Z,3.60
2023-02-05T17:17:32.094Z,2.30
2023-02-05T17:20:10.126Z,3.72
2023-02-05T17:22:40.659Z,3.83
2023-02-05T17:25:08.218Z,2.30
2023-02-05T17:27:39.854Z,2.30
2023-02-05T17:30:15.927Z,7.00
2023-02-05T17:32:45.086Z,13.77
2023-02-05T17:35:16.421Z,8.52
2023-02-05T17:37:43.935Z,3.17
2023-02-05T17:40:15.171Z,3.10
2023-02-05T17:42:46.341Z,17.00
2023-02-05T17:45:23.281Z,4.50
2023-02-05T17:47:50.737Z,4.85
2023-02-05T17:50:19.397Z,4.65
2023-02-05T17:52:47.189Z,3.55
2023-02-05T17:55:17.959Z,3.03
2023-02-05T17:57:46.196Z,2.90
2023-02-05T18:00:23.898Z,3.92
2023-02-05T18:02:51.528Z,3.92
2023-02-05T18:05:20.864Z,2.88
2023-02-05T18:07:57.013Z,7.03
2023-02-05T18:10:28.590Z,4.38
2023-02-05T18:12:58.822Z,5.03
2023-02-05T18:15:27.079Z,4.47
2023-02-05T18:17:54.385Z,5.10
2023-02-05T18:20:21.765Z,2.70
2023-02-05T18:22:49.408Z,1.92
2023-02-05T18:25:17.494Z,2.58
2023-02-05T18:27:45.413Z,3.28
2023-02-05T18:30:13.175Z,3.42
2023-02-05T18:32:40.512Z,6.05
2023-02-05T18:35:12.710Z,2.30
2023-02-05T18:37:42.675Z,5.00
2023-02-05T18:40:10.767Z,6.35
2023-02-05T18:42:40.067Z,5.82
2023-02-05T18:45:09.116Z,4.28
2023-02-05T18:47:36.507Z,2.92
2023-02-05T18:50:03.791Z,3.97
2023-02-05T18:52:31.646Z,3.45
2023-02-05T18:54:58.833Z,2.15
2023-02-05T18:57:26.173Z,4.10
2023-02-05T18:59:54.350Z,6.22
2023-02-05T19:02:21.832Z,2.35
2023-02-05T19:04:52.326Z,3.50
2023-02-05T19:07:21.640Z,1.90
2023-02-05T19:09:50.881Z,2.47
2023-02-05T19:12:19.362Z,6.05
2023-02-05T19:14:46.692Z,3.67
2023-02-05T19:17:14.244Z,7.90
2023-02-05T19:19:41.774Z,2.35
2023-02-05T19:22:10.128Z,4.68
2023-02-05T19:24:37.549Z,3.15
2023-02-05T19:27:05.113Z,3.42
2023-02-05T19:29:38.406Z,2.38
2023-02-05T19:32:08.889Z,5.55
2023-02-05T19:34:38.864Z,4.68
2023-02-05T19:37:06.703Z,4.55
2023-02-05T19:39:33.981Z,4.22
2023-02-05T19:42:01.369Z,5.90
2023-02-05T19:44:31.122Z,2.92
2023-02-05T19:46:58.604Z,5.03
2023-02-05T19:49:28.934Z,3.88
2023-02-05T19:51:59.730Z,3.45
2023-02-05T19:54:26.833Z,4.50
2023-02-05T19:56:54.096Z,4.93
2023-02-05T19:59:21.525Z,4.93
2023-02-05T20:01:49.984Z,5.18
2023-02-05T20:04:25.165Z,3.15
2023-02-05T20:07:00.244Z,5.55
2023-02-05T20:11:56.050Z,4.38
2023-02-05T20:14:24.610Z,13.05
2023-02-05T20:16:52.812Z,4.80
2023-02-05T20:19:27.511Z,5.50
2023-02-05T20:21:55.070Z,5.78
2023-02-05T20:24:22.351Z,4.90
2023-02-05T20:26:49.600Z,12.88
2023-02-05T20:29:36.013Z,5.65
2023-02-05T20:32:03.601Z,5.72
2023-02-05T20:34:31.465Z,3.72
2023-02-05T20:37:02.577Z,4.47
2023-02-05T20:39:30.463Z,3.40
2023-02-05T20:41:59.471Z,6.70
2023-02-05T20:44:32.118Z,3.78
2023-02-05T20:46:59.339Z,5.50
2023-02-05T20:49:26.889Z,5.45
2023-02-05T20:51:54.478Z,7.85
2023-02-05T20:54:22.881Z,8.88
2023-02-05T20:56:57.324Z,5.95
2023-02-05T20:59:27.698Z,6.85
2023-02-05T21:01:55.629Z,4.53
2023-02-05T21:04:23.074Z,7.28
2023-02-05T21:06:50.456Z,7.15
2023-02-05T21:09:18.003Z,5.35
2023-02-05T21:11:45.758Z,7.05
2023-02-05T21:14:13.086Z,6.13
2023-02-05T21:16:40.880Z,7.82
2023-02-05T21:19:12.586Z,10.48
2023-02-05T21:21:40.489Z,10.70
2023-02-05T21:24:17.797Z,10.40
2023-02-05T21:26:47.016Z,7.80
2023-02-05T21:29:17.203Z,7.05
2023-02-05T21:31:50.371Z,10.40
2023-02-05T21:34:22.278Z,12.18
2023-02-05T21:36:50.573Z,8.02
2023-02-05T21:39:20.523Z,8.85
2023-02-05T21:41:50.331Z,5.90
2023-02-05T21:44:17.649Z,7.43
2023-02-05T21:46:44.803Z,8.88
2023-02-05T21:49:12.457Z,8.45
2023-02-05T21:51:42.493Z,6.00
2023-02-05T21:54:11.873Z,9.27
2023-02-05T21:56:41.893Z,10.10
2023-02-05T21:59:11.215Z,10.82
2023-02-05T22:01:38.410Z,8.00
2023-02-05T22:04:10.700Z,9.75
2023-02-05T22:06:38.933Z,7.93
2023-02-05T22:09:09.642Z,13.90
2023-02-05T22:11:39.544Z,9.93
2023-02-05T22:14:07.730Z,8.30
2023-02-05T22:16:36.045Z,12.23
2023-02-05T22:19:04.405Z,12.52
2023-02-05T22:21:34.644Z,12.52
2023-02-05T22:24:03.638Z,12.85
2023-02-05T22:26:34.137Z,12.63
2023-02-05T22:29:03.445Z,15.75
2023-02-05T22:31:31.331Z,17.48
2023-02-05T22:33:59.117Z,15.70
2023-02-05T22:36:30.129Z,15.48
2023-02-05T22:38:58.701Z,11.27
2023-02-05T22:41:37.240Z,15.02
2023-02-05T22:44:06.040Z,16.02
2023-02-05T22:46:36.199Z,15.65
2023-02-05T22:49:04.100Z,22.55
2023-02-05T22:51:34.162Z,12.65
2023-02-05T22:54:01.957Z,25.75
2023-02-05T22:56:29.620Z,20.48
2023-02-05T22:58:57.207Z,15.95
2023-02-05T23:01:26.950Z,13.57
2023-02-05T23:03:55.530Z,16.65
2023-02-05T23:06:43.102Z,13.10
2023-02-05T23:09:14.792Z,19.42
2023-02-05T23:11:46.596Z,20.25
2023-02-05T23:14:16.608Z,21.50
2023-02-05T23:16:48.148Z,22.35
2023-02-05T23:19:19.151Z,26.60
2023-02-05T23:21:47.792Z,29.40
2023-02-05T23:24:16.449Z,20.00
2023-02-05T23:26:47.025Z,21.52
2023-02-05T23:29:16.109Z,26.75
2023-02-05T23:31:44.127Z,25.05
2023-02-05T23:34:12.084Z,28.45
2023-02-05T23:36:39.691Z,28.35
2023-02-05T23:39:07.149Z,26.98
2023-02-05T23:41:37.606Z,21.92
2023-02-05T23:44:12.358Z,25.08
2023-02-05T23:46:41.207Z,31.23
2023-02-05T23:49:09.430Z,25.10
2023-02-05T23:51:37.392Z,22.55
2023-02-05T23:54:05.664Z,32.20
2023-02-05T23:56:33.686Z,32.35
2023-02-05T23:59:01.550Z,28.75
